createdAt,value
2023-02-19T00:01:50.214Z,62.83
2023-02-19T00:04:20.192Z,64.30
2023-02-19T00:06:48.897Z,45.60
2023-02-19T00:09:18.749Z,38.80
2023-02-19T00:11:48.197Z,37.83
2023-02-19T00:14:17.856Z,48.47
2023-02-19T00:19:14.646Z,40.90
2023-02-19T00:21:43.458Z,56.73
2023-02-19T00:24:12.742Z,31.80
2023-02-19T00:26:41.735Z,34.73
2023-02-19T00:29:11.962Z,40.17
2023-02-19T00:31:40.869Z,59.10
2023-02-19T00:34:10.976Z,65.50
2023-02-19T00:36:40.619Z,61.63
2023-02-19T00:41:36.202Z,67.85
2023-02-19T00:44:06.754Z,61.13
2023-02-19T00:46:36.685Z,44.60
2023-02-19T00:49:05.551Z,48.77
2023-02-19T00:51:35.585Z,52.00
2023-02-19T00:54:04.663Z,62.73
2023-02-19T00:56:33.281Z,78.63
2023-02-19T00:59:02.019Z,82.00
2023-02-19T01:01:30.532Z,78.00
2023-02-19T01:03:58.560Z,81.27
2023-02-19T01:06:26.574Z,79.47
2023-02-19T01:08:54.998Z,65.10
2023-02-19T01:11:23.248Z,83.73
2023-02-19T01:13:51.478Z,74.00
2023-02-19T01:16:21.045Z,71.23
2023-02-19T01:21:19.370Z,50.92
2023-02-19T01:23:47.855Z,77.27
2023-02-19T01:26:18.320Z,69.73
2023-02-19T01:28:46.440Z,70.00
2023-02-19T01:31:16.547Z,72.07
2023-02-19T01:33:48.549Z,79.67
2023-02-19T01:36:18.571Z,81.63
2023-02-19T01:38:47.428Z,76.53
2023-02-19T01:41:17.678Z,72.93
2023-02-19T01:44:02.635Z,71.37
2023-02-19T01:46:33.208Z,64.83
2023-02-19T01:49:02.650Z,52.63
2023-02-19T01:51:31.883Z,56.20
2023-02-19T01:54:01.308Z,51.93
2023-02-19T01:56:31.244Z,48.57
2023-02-19T01:58:59.802Z,46.47
2023-02-19T02:01:27.682Z,47.67
2023-02-19T02:03:56.336Z,41.70
2023-02-19T02:06:28.443Z,28.33
2023-02-19T02:09:16.027Z,27.10
2023-02-19T02:11:45.937Z,19.00
2023-02-19T02:14:14.766Z,15.43
2023-02-19T02:16:44.972Z,16.27
2023-02-19T02:19:18.941Z,11.67
2023-02-19T02:21:48.422Z,15.20
2023-02-19T02:24:23.638Z,17.00
2023-02-19T02:27:10.104Z,18.43
2023-02-19T02:29:56.934Z,21.63
2023-02-19T02:32:29.885Z,25.27
2023-02-19T02:35:02.831Z,21.20
2023-02-19T02:37:32.917Z,26.13
2023-02-19T02:40:01.804Z,19.63
2023-02-19T02:42:30.449Z,20.10
2023-02-19T02:45:17.709Z,21.40
2023-02-19T02:47:47.260Z,17.23
2023-02-19T02:50:17.349Z,14.73
2023-02-19T02:53:04.560Z,14.67
2023-02-19T02:55:34.070Z,15.67
2023-02-19T03:00:32.294Z,12.30
2023-02-19T03:03:00.844Z,11.27
2023-02-19T03:05:47.055Z,16.63
2023-02-19T03:08:17.216Z,16.00
2023-02-19T03:10:58.838Z,17.43
2023-02-19T03:13:46.707Z,16.20
2023-02-19T03:16:37.170Z,17.90
2023-02-19T03:19:21.229Z,21.07
2023-02-19T03:22:00.169Z,14.27
2023-02-19T03:24:48.155Z,15.27
2023-02-19T03:27:18.419Z,19.97
2023-02-19T03:29:48.653Z,17.97
2023-02-19T03:32:27.822Z,21.10
2023-02-19T03:35:03.422Z,20.77
2023-02-19T03:37:33.448Z,19.17
2023-02-19T03:40:01.519Z,20.63
2023-02-19T03:42:35.802Z,22.00
2023-02-19T03:45:08.893Z,23.33
2023-02-19T03:47:40.004Z,27.57
2023-02-19T03:50:27.843Z,27.07
2023-02-19T03:53:14.142Z,27.77
2023-02-19T03:55:59.380Z,27.83
2023-02-19T03:58:29.597Z,30.27
2023-02-19T04:01:05.960Z,35.57
2023-02-19T04:03:52.646Z,39.60
2023-02-19T04:06:25.486Z,32.20
2023-02-19T04:08:55.577Z,33.13
2023-02-19T04:11:24.336Z,30.17
2023-02-19T04:13:54.401Z,40.70
2023-02-19T04:16:24.037Z,35.87
2023-02-19T04:18:55.124Z,28.17
2023-02-19T04:21:23.927Z,31.83
2023-02-19T04:23:52.751Z,30.17
2023-02-19T04:26:22.248Z,30.03
2023-02-19T04:28:51.401Z,35.23
2023-02-19T04:31:20.319Z,31.13
2023-02-19T04:33:48.978Z,32.27
2023-02-19T04:36:16.802Z,29.20
2023-02-19T04:38:45.018Z,30.63
2023-02-19T04:41:13.331Z,30.97
2023-02-19T04:43:41.365Z,32.40
2023-02-19T04:46:09.204Z,33.47
2023-02-19T04:48:37.724Z,35.20
2023-02-19T04:51:07.981Z,36.17
2023-02-19T04:53:37.164Z,36.50
2023-02-19T04:56:10.029Z,31.17
2023-02-19T04:58:38.126Z,34.70
2023-02-19T05:01:07.124Z,27.00
2023-02-19T05:03:36.427Z,25.53
2023-02-19T05:06:09.785Z,24.43
2023-02-19T05:08:37.712Z,24.40
2023-02-19T05:11:07.722Z,22.53
2023-02-19T05:13:36.438Z,23.37
2023-02-19T05:16:06.228Z,24.23
2023-02-19T05:18:38.291Z,21.33
2023-02-19T05:21:06.926Z,21.27
2023-02-19T05:23:34.901Z,22.27
2023-02-19T05:26:10.354Z,24.37
2023-02-19T05:28:38.963Z,26.27
2023-02-19T05:31:08.903Z,32.07
2023-02-19T05:33:38.114Z,25.67
2023-02-19T05:36:10.522Z,27.30
2023-02-19T05:38:39.342Z,24.77
2023-02-19T05:41:08.858Z,30.27
2023-02-19T05:46:04.077Z,38.02
2023-02-19T05:48:32.507Z,34.10
2023-02-19T05:51:04.911Z,30.23
2023-02-19T05:53:33.469Z,26.30
2023-02-19T05:56:01.942Z,28.17
2023-02-19T05:58:31.160Z,29.63
2023-02-19T06:00:59.942Z,28.93
2023-02-19T06:03:28.961Z,35.33
2023-02-19T06:05:57.617Z,39.40
2023-02-19T06:08:25.688Z,43.37
2023-02-19T06:10:55.202Z,38.27
2023-02-19T06:13:23.679Z,55.03
2023-02-19T06:15:52.185Z,35.80
2023-02-19T06:18:20.945Z,37.27
2023-02-19T06:20:49.629Z,36.80
2023-02-19T06:23:18.120Z,41.30
2023-02-19T06:25:46.958Z,42.30
2023-02-19T06:28:15.489Z,37.50
2023-02-19T06:30:44.077Z,38.77
2023-02-19T06:33:12.561Z,37.77
2023-02-19T06:35:40.946Z,28.57
2023-02-19T06:38:10.236Z,24.17
2023-02-19T06:40:39.022Z,26.27
2023-02-19T06:43:07.613Z,24.70
2023-02-19T06:45:36.192Z,20.97
2023-02-19T06:48:05.086Z,22.40
2023-02-19T06:50:33.879Z,21.83
2023-02-19T06:53:02.378Z,18.80
2023-02-19T06:55:30.942Z,22.07
2023-02-19T06:57:58.911Z,19.13
2023-02-19T07:00:27.746Z,16.37
2023-02-19T07:02:57.358Z,20.90
2023-02-19T07:05:25.877Z,17.97
2023-02-19T07:07:54.461Z,16.13
2023-02-19T07:10:23.180Z,24.63
2023-02-19T07:12:52.518Z,24.57
2023-02-19T07:15:20.467Z,17.07
2023-02-19T07:17:48.972Z,14.90
2023-02-19T07:20:17.596Z,17.50
2023-02-19T07:22:45.542Z,15.63
2023-02-19T07:25:14.141Z,18.60
2023-02-19T07:27:42.254Z,16.60
2023-02-19T07:30:11.627Z,12.73
2023-02-19T07:32:41.848Z,9.70
2023-02-19T07:35:11.246Z,10.40
2023-02-19T07:37:39.215Z,10.17
2023-02-19T07:40:08.417Z,8.47
2023-02-19T07:42:36.480Z,9.87
2023-02-19T07:45:07.097Z,8.23
2023-02-19T07:47:37.713Z,11.13
2023-02-19T07:50:06.935Z,8.57
2023-02-19T07:52:34.922Z,8.43
2023-02-19T07:55:03.493Z,11.33
2023-02-19T07:57:31.451Z,8.93
2023-02-19T08:00:00.872Z,9.57
2023-02-19T08:02:47.301Z,7.27
2023-02-19T08:05:15.494Z,10.80
2023-02-19T08:07:44.336Z,7.60
2023-02-19T08:10:30.105Z,9.13
2023-02-19T08:13:17.175Z,9.10
2023-02-19T08:15:46.096Z,6.93
2023-02-19T08:18:15.139Z,8.57
2023-02-19T08:20:44.477Z,8.00
2023-02-19T08:23:13.757Z,7.87
2023-02-19T08:25:42.596Z,9.70
2023-02-19T08:28:12.336Z,9.13
2023-02-19T08:30:41.863Z,9.90
2023-02-19T08:33:10.588Z,7.53
2023-02-19T08:35:39.550Z,11.17
2023-02-19T08:38:08.355Z,8.60
2023-02-19T08:40:38.398Z,6.23
2023-02-19T08:43:07.780Z,7.83
2023-02-19T08:45:38.058Z,6.27
2023-02-19T08:48:06.435Z,10.37
2023-02-19T08:50:35.157Z,7.97
2023-02-19T08:53:04.410Z,8.07
2023-02-19T08:58:00.156Z,10.00
2023-02-19T09:00:29.041Z,38.93
2023-02-19T09:02:58.589Z,10.63
2023-02-19T09:05:27.221Z,6.77
2023-02-19T09:07:55.636Z,8.23
2023-02-19T09:10:24.390Z,6.97
2023-02-19T09:12:53.179Z,7.90
2023-02-19T09:15:21.771Z,6.83
2023-02-19T09:17:53.350Z,8.80
2023-02-19T09:20:21.992Z,8.63
2023-02-19T09:22:49.962Z,7.40
2023-02-19T09:25:21.920Z,6.83
2023-02-19T09:27:53.198Z,4.83
2023-02-19T09:30:21.925Z,7.33
2023-02-19T09:32:50.708Z,5.23
2023-02-19T09:35:21.286Z,5.57
2023-02-19T09:37:50.291Z,5.60
2023-02-19T09:40:20.790Z,6.53
2023-02-19T09:42:50.281Z,7.17
2023-02-19T09:45:23.009Z,5.40
2023-02-19T09:47:53.459Z,5.93
2023-02-19T09:50:23.568Z,6.03
2023-02-19T09:53:00.123Z,3.77
2023-02-19T09:55:29.586Z,5.53
2023-02-19T09:57:58.926Z,6.23
2023-02-19T10:00:28.406Z,5.27
2023-02-19T10:02:58.502Z,6.57
2023-02-19T10:05:27.816Z,4.20
2023-02-19T10:07:56.409Z,4.63
2023-02-19T10:10:32.392Z,6.80
2023-02-19T10:13:02.001Z,6.93
2023-02-19T10:15:34.762Z,4.50
2023-02-19T10:18:04.615Z,5.50
2023-02-19T10:20:34.011Z,7.17
2023-02-19T10:23:06.537Z,5.57
2023-02-19T10:25:36.200Z,7.27
2023-02-19T10:28:05.639Z,5.17
2023-02-19T10:30:35.988Z,4.20
2023-02-19T10:33:14.840Z,5.10
2023-02-19T10:36:03.716Z,4.83
2023-02-19T10:38:33.657Z,5.83
2023-02-19T10:41:18.524Z,4.33
2023-02-19T10:43:54.012Z,5.43
2023-02-19T10:46:25.354Z,5.97
2023-02-19T10:48:58.799Z,5.43
2023-02-19T10:51:34.776Z,6.23
2023-02-19T10:54:08.952Z,6.50
2023-02-19T10:56:38.777Z,5.53
2023-02-19T10:59:20.692Z,4.63
2023-02-19T11:01:56.167Z,4.43
2023-02-19T11:04:25.648Z,5.80
2023-02-19T11:06:53.984Z,6.80
2023-02-19T11:09:27.592Z,7.53
2023-02-19T11:11:57.285Z,6.07
2023-02-19T11:14:26.178Z,5.87
2023-02-19T11:16:58.165Z,4.87
2023-02-19T11:19:28.661Z,4.77
2023-02-19T11:21:57.246Z,5.13
2023-02-19T11:24:27.498Z,6.80
2023-02-19T11:26:56.423Z,4.87
2023-02-19T11:29:27.036Z,8.23
2023-02-19T11:31:56.660Z,8.73
2023-02-19T11:34:29.704Z,5.90
2023-02-19T11:37:12.123Z,5.93
2023-02-19T11:39:41.511Z,10.07
2023-02-19T11:42:29.602Z,8.13
2023-02-19T11:45:08.601Z,6.27
2023-02-19T11:47:40.986Z,6.53
2023-02-19T11:50:27.438Z,7.40
2023-02-19T11:53:12.849Z,6.70
2023-02-19T11:55:45.829Z,7.63
2023-02-19T11:58:21.883Z,6.73
2023-02-19T12:00:58.359Z,6.33
2023-02-19T12:03:31.047Z,4.60
2023-02-19T12:06:09.571Z,5.07
2023-02-19T12:08:45.614Z,6.67
2023-02-19T12:11:24.841Z,7.63
2023-02-19T12:14:01.062Z,8.87
2023-02-19T12:16:37.211Z,5.00
2023-02-19T12:19:07.443Z,5.17
2023-02-19T12:21:51.628Z,5.63
2023-02-19T12:24:31.140Z,5.70
2023-02-19T12:27:01.425Z,4.23
2023-02-19T12:29:34.587Z,6.50
2023-02-19T12:32:15.358Z,5.87
2023-02-19T12:34:44.807Z,5.40
2023-02-19T12:37:19.647Z,4.77
2023-02-19T12:39:50.642Z,3.93
2023-02-19T12:42:21.482Z,4.80
2023-02-19T12:44:54.254Z,6.67
2023-02-19T12:47:24.418Z,4.83
2023-02-19T12:50:06.584Z,4.17
2023-02-19T12:52:37.935Z,3.40
2023-02-19T12:55:17.162Z,4.37
2023-02-19T12:57:45.553Z,4.57
2023-02-19T13:00:32.476Z,5.97
2023-02-19T13:03:02.704Z,4.10
2023-02-19T13:05:45.201Z,3.20
2023-02-19T13:08:21.289Z,4.67
2023-02-19T13:10:53.750Z,6.10
2023-02-19T13:13:24.013Z,6.63
2023-02-19T13:15:54.585Z,4.73
2023-02-19T13:18:25.035Z,4.97
2023-02-19T13:20:56.022Z,4.53
2023-02-19T13:23:49.683Z,5.00
2023-02-19T13:28:52.510Z,5.67
2023-02-19T13:31:24.954Z,4.33
2023-02-19T13:33:54.761Z,4.63
2023-02-19T13:36:24.247Z,4.63
2023-02-19T13:38:53.297Z,4.77
2023-02-19T13:43:50.540Z,5.40
2023-02-19T13:46:18.616Z,6.60
2023-02-19T13:48:47.872Z,4.73
2023-02-19T13:51:22.584Z,4.30
2023-02-19T13:53:52.191Z,4.87
2023-02-19T13:56:27.530Z,6.57
2023-02-19T13:58:57.645Z,4.27
2023-02-19T14:01:45.524Z,9.50
2023-02-19T14:04:32.183Z,6.27
2023-02-19T14:07:09.115Z,7.90
2023-02-19T14:09:42.009Z,5.87
2023-02-19T14:12:15.870Z,5.93
2023-02-19T14:14:45.673Z,9.03
2023-02-19T14:17:28.314Z,9.03
2023-02-19T14:20:14.782Z,8.73
2023-02-19T14:22:51.819Z,7.03
2023-02-19T14:25:30.841Z,6.17
2023-02-19T14:28:04.278Z,6.90
2023-02-19T14:30:33.779Z,8.40
2023-02-19T14:33:10.692Z,9.30
2023-02-19T14:35:39.544Z,5.47
2023-02-19T14:38:08.712Z,5.23
2023-02-19T14:40:39.781Z,7.30
2023-02-19T14:43:08.892Z,4.93
2023-02-19T14:45:42.490Z,7.37
2023-02-19T14:48:15.341Z,7.90
2023-02-19T14:50:45.271Z,8.13
2023-02-19T14:53:14.838Z,7.00
2023-02-19T14:55:44.121Z,6.67
2023-02-19T14:58:14.949Z,7.03
2023-02-19T15:00:43.354Z,7.77
2023-02-19T15:03:27.163Z,7.67
2023-02-19T15:05:57.717Z,6.87
2023-02-19T15:08:29.490Z,7.47
2023-02-19T15:10:57.725Z,8.00
2023-02-19T15:13:28.012Z,8.47
2023-02-19T15:15:57.496Z,9.07
2023-02-19T15:18:26.950Z,10.50
2023-02-19T15:21:06.297Z,7.23
2023-02-19T15:23:36.602Z,6.10
2023-02-19T15:26:05.348Z,9.83
2023-02-19T15:28:35.032Z,10.57
2023-02-19T15:31:06.838Z,8.00
2023-02-19T15:33:35.654Z,13.37
2023-02-19T15:36:05.741Z,10.80
2023-02-19T15:38:34.225Z,16.23
2023-02-19T15:41:03.076Z,16.93
2023-02-19T15:43:32.602Z,11.80
2023-02-19T15:46:02.814Z,10.53
2023-02-19T15:48:32.991Z,48.10
2023-02-19T15:51:04.578Z,32.80
2023-02-19T15:53:34.861Z,28.87
2023-02-19T15:56:07.390Z,18.70
2023-02-19T15:58:41.092Z,12.60
2023-02-19T16:01:11.463Z,15.43
2023-02-19T16:03:40.859Z,15.37
2023-02-19T16:06:16.466Z,13.67
2023-02-19T16:08:46.023Z,22.93
2023-02-19T16:11:24.890Z,15.03
2023-02-19T16:13:52.834Z,13.80
2023-02-19T16:16:30.444Z,13.07
2023-02-19T16:18:59.253Z,10.93
2023-02-19T16:21:28.054Z,9.90
2023-02-19T16:23:59.544Z,16.13
2023-02-19T16:26:28.850Z,13.93
2023-02-19T16:28:57.324Z,10.57
2023-02-19T16:31:26.127Z,11.53
2023-02-19T16:33:54.939Z,11.30
2023-02-19T16:36:38.144Z,12.83
2023-02-19T16:39:12.841Z,11.50
2023-02-19T16:41:43.066Z,14.97
2023-02-19T16:44:21.817Z,11.53
2023-02-19T16:46:51.055Z,11.07
2023-02-19T16:49:19.926Z,12.77
2023-02-19T16:51:48.009Z,12.60
2023-02-19T16:54:16.724Z,10.67
2023-02-19T16:56:45.561Z,12.20
2023-02-19T16:59:13.760Z,12.53
2023-02-19T17:01:42.624Z,11.57
2023-02-19T17:04:12.082Z,10.67
2023-02-19T17:06:41.026Z,11.30
2023-02-19T17:09:09.952Z,10.73
2023-02-19T17:11:38.728Z,13.80
2023-02-19T17:14:06.901Z,13.07
2023-02-19T17:16:37.040Z,13.50
2023-02-19T17:19:07.802Z,14.00
2023-02-19T17:21:36.672Z,14.77
2023-02-19T17:24:05.544Z,13.10
2023-02-19T17:26:34.564Z,12.37
2023-02-19T17:29:04.493Z,11.47
2023-02-19T17:31:33.433Z,11.27
2023-02-19T17:34:02.184Z,13.03
2023-02-19T17:36:32.551Z,17.43
2023-02-19T17:39:02.186Z,16.53
2023-02-19T17:41:31.157Z,17.93
2023-02-19T17:43:59.739Z,17.33
2023-02-19T17:46:29.036Z,18.20
2023-02-19T17:48:57.429Z,16.17
2023-02-19T17:51:26.309Z,14.13
2023-02-19T17:53:54.589Z,17.60
2023-02-19T17:56:24.504Z,14.80
2023-02-19T17:58:53.171Z,14.10
2023-02-19T18:01:22.665Z,12.10
2023-02-19T18:03:50.867Z,14.50
2023-02-19T18:06:20.311Z,13.53
2023-02-19T18:08:50.413Z,16.00
2023-02-19T18:11:18.772Z,19.30
2023-02-19T18:13:48.915Z,12.80
2023-02-19T18:16:17.476Z,9.20
2023-02-19T18:18:47.026Z,13.40
2023-02-19T18:26:12.428Z,15.63
2023-02-19T18:28:40.755Z,12.30
2023-02-19T18:31:10.121Z,14.03
2023-02-19T18:33:38.933Z,9.53
2023-02-19T18:36:08.829Z,14.03
2023-02-19T18:38:36.980Z,11.57
2023-02-19T18:41:04.987Z,12.00
2023-02-19T18:43:33.014Z,11.50
2023-02-19T18:46:01.612Z,12.67
2023-02-19T18:48:31.072Z,12.20
2023-02-19T18:53:26.230Z,10.95
2023-02-19T18:55:54.090Z,10.20
2023-02-19T18:58:24.368Z,9.80
2023-02-19T19:00:53.626Z,12.00
2023-02-19T19:03:22.291Z,10.87
2023-02-19T19:05:50.281Z,9.27
2023-02-19T19:08:18.964Z,12.53
2023-02-19T19:10:46.900Z,10.63
2023-02-19T19:13:15.762Z,11.23
2023-02-19T19:15:45.166Z,10.37
2023-02-19T19:18:14.108Z,12.17
2023-02-19T19:20:42.973Z,9.40
2023-02-19T19:23:10.977Z,10.07
2023-02-19T19:25:39.788Z,11.17
2023-02-19T19:28:08.705Z,11.67
2023-02-19T19:30:37.564Z,10.67
2023-02-19T19:33:06.859Z,14.00
2023-02-19T19:35:35.657Z,10.90
2023-02-19T19:38:03.972Z,12.33
2023-02-19T19:40:32.711Z,14.17
2023-02-19T19:43:01.407Z,12.40
2023-02-19T19:45:30.274Z,9.37
2023-02-19T19:48:01.129Z,11.17
2023-02-19T19:52:56.443Z,10.90
2023-02-19T19:55:24.500Z,11.30
2023-02-19T19:57:54.959Z,16.67
2023-02-19T20:00:25.016Z,10.77
2023-02-19T20:02:53.292Z,12.10
2023-02-19T20:05:21.386Z,11.43
2023-02-19T20:07:50.001Z,10.97
2023-02-19T20:10:19.978Z,9.60
2023-02-19T20:12:48.563Z,10.00
2023-02-19T20:15:18.821Z,10.60
2023-02-19T20:17:46.749Z,9.67
2023-02-19T20:20:15.671Z,9.80
2023-02-19T20:22:44.678Z,13.70
2023-02-19T20:25:12.886Z,12.50
2023-02-19T20:27:42.469Z,9.30
2023-02-19T20:30:12.692Z,9.63
2023-02-19T20:32:41.880Z,12.30
2023-02-19T20:35:10.670Z,8.83
2023-02-19T20:37:39.340Z,9.90
2023-02-19T20:40:08.661Z,10.00
2023-02-19T20:42:37.164Z,8.13
2023-02-19T20:45:06.340Z,9.70
2023-02-19T20:47:35.051Z,10.33
2023-02-19T20:50:02.971Z,9.87
2023-02-19T20:52:31.012Z,9.97
2023-02-19T20:55:00.085Z,11.53
2023-02-19T20:57:28.131Z,8.67
2023-02-19T20:59:56.873Z,12.80
2023-02-19T21:02:28.014Z,11.20
2023-02-19T21:04:57.068Z,10.40
2023-02-19T21:07:26.392Z,11.87
2023-02-19T21:09:55.072Z,8.90
2023-02-19T21:12:23.868Z,9.40
2023-02-19T21:14:52.401Z,10.60
2023-02-19T21:17:21.050Z,8.97
2023-02-19T21:19:50.319Z,11.43
2023-02-19T21:22:19.003Z,10.90
2023-02-19T21:24:49.708Z,9.67
2023-02-19T21:27:17.927Z,10.43
2023-02-19T21:29:47.218Z,10.53
2023-02-19T21:32:15.653Z,11.47
2023-02-19T21:34:44.503Z,11.80
2023-02-19T21:37:13.255Z,11.07
2023-02-19T21:39:42.824Z,9.67
2023-02-19T21:44:38.550Z,9.70
2023-02-19T21:47:07.196Z,11.57
2023-02-19T21:49:35.839Z,10.47
2023-02-19T21:52:04.772Z,11.27
2023-02-19T21:54:33.531Z,9.47
2023-02-19T21:57:03.426Z,10.37
2023-02-19T21:59:32.145Z,12.63
2023-02-19T22:02:00.728Z,16.33
2023-02-19T22:04:29.241Z,9.97
2023-02-19T22:06:57.316Z,9.50
2023-02-19T22:09:26.124Z,12.83
2023-02-19T22:11:54.057Z,11.57
2023-02-19T22:14:22.733Z,9.70
2023-02-19T22:16:52.220Z,10.90
2023-02-19T22:19:20.825Z,9.40
2023-02-19T22:21:49.522Z,10.50
2023-02-19T22:24:19.405Z,10.17
2023-02-19T22:26:48.137Z,13.80
2023-02-19T22:29:17.119Z,12.03
2023-02-19T22:31:45.727Z,9.03
2023-02-19T22:34:15.572Z,9.53
2023-02-19T22:36:44.029Z,10.53
2023-02-19T22:39:20.152Z,11.37
2023-02-19T22:41:48.662Z,12.97
2023-02-19T22:44:17.923Z,11.53
2023-02-19T22:46:50.718Z,14.47
2023-02-19T22:49:19.782Z,16.73
2023-02-19T22:51:49.498Z,10.87
2023-02-19T22:54:17.512Z,12.37
2023-02-19T22:56:45.957Z,11.43
2023-02-19T22:59:13.915Z,12.80
2023-02-19T23:01:41.854Z,12.30
2023-02-19T23:04:10.589Z,10.57
2023-02-19T23:06:40.139Z,10.80
2023-02-19T23:11:39.599Z,10.20
2023-02-19T23:14:08.598Z,9.73
2023-02-19T23:16:36.893Z,9.93
2023-02-19T23:19:06.672Z,9.97
2023-02-19T23:21:35.276Z,8.70
2023-02-19T23:24:03.860Z,8.50
2023-02-19T23:26:32.610Z,10.80
2023-02-19T23:29:01.299Z,13.57
2023-02-19T23:31:29.830Z,12.30
2023-02-19T23:33:58.614Z,11.93
2023-02-19T23:36:27.090Z,9.53
2023-02-19T23:38:55.059Z,10.80
2023-02-19T23:41:23.645Z,13.60
2023-02-19T23:43:52.276Z,10.40
2023-02-19T23:46:20.219Z,12.73
2023-02-19T23:48:48.778Z,9.93
2023-02-19T23:51:17.093Z,11.43
2023-02-19T23:53:45.732Z,11.97
2023-02-19T23:56:13.977Z,11.33
2023-02-19T23:58:42.814Z,11.03
